Time;durP1;ratioP1;P1;durP2;ratioP2;P2;SDS_P1;SDS_P2;PMS_P1;PMS_P2;Temp;Humidity;BMP_temperature;BMP_pressure;BME280_temperature;BME280_humidity;BME280_pressure;Samples;Min_cycle;Max_cycle;Signal;HPM_P1;HPM_P2
2020/12/09 00:02:17;;;;;;;21.07;7.33;;;;;;;-6.37;66.02;100730.34;1674198;83;21152;-52
2020/12/09 00:04:44;;;;;;;18.63;6.93;;;;;;;-6.35;66.03;100731.72;1669866;83;21152;-51
2020/12/09 00:07:11;;;;;;;18.03;5.73;;;;;;;-6.33;65.99;100735.29;1673776;83;21168;-52
2020/12/09 00:09:38;;;;;;;19.13;8.37;;;;;;;-6.31;65.94;100739.75;1665643;84;21156;-52
2020/12/09 00:12:06;;;;;;;18.20;5.63;;;;;;;-6.32;65.90;100734.03;1673978;83;22491;-52
2020/12/09 00:14:33;;;;;;;20.97;5.97;;;;;;;-6.32;65.90;100734.45;1731937;81;21542;-53
2020/12/09 00:17:00;;;;;;;21.60;5.30;;;;;;;-6.33;65.90;100728.32;1731537;81;21139;-52
2020/12/09 00:21:56;;;;;;;17.57;5.97;;;;;;;-6.31;65.84;100729.27;1868852;75;25148;-53
2020/12/09 00:24:23;;;;;;;12.77;5.03;;;;;;;-6.37;65.89;100726.83;1834454;76;21719;-53
2020/12/09 00:26:50;;;;;;;12.13;4.47;;;;;;;-6.36;65.97;100732.55;1842717;76;21353;-52
2020/12/09 00:29:17;;;;;;;15.30;5.50;;;;;;;-6.34;65.96;100730.88;1803412;78;21230;-53
2020/12/09 00:31:44;;;;;;;13.50;4.67;;;;;;;-6.33;66.02;100730.94;1775293;78;21191;-53
2020/12/09 00:34:12;;;;;;;15.93;4.83;;;;;;;-6.30;66.00;100732.78;1779361;78;21162;-53
2020/12/09 00:36:39;;;;;;;13.43;5.20;;;;;;;-6.27;65.98;100738.11;1770502;78;21189;-53
2020/12/09 00:39:06;;;;;;;11.57;4.43;;;;;;;-6.25;65.91;100733.41;1767786;79;21517;-52
2020/12/09 00:41:34;;;;;;;12.90;4.90;;;;;;;-6.23;65.85;100727.80;1774364;78;21776;-53
2020/12/09 00:44:01;;;;;;;12.47;3.80;;;;;;;-6.20;65.94;100730.92;1780501;79;21158;-53
2020/12/09 00:46:28;;;;;;;14.37;4.77;;;;;;;-6.17;65.90;100728.42;1781685;79;21718;-52
2020/12/09 00:48:58;;;;;;;18.03;4.27;;;;;;;-6.15;65.85;100715.85;1780690;79;21738;-53
2020/12/09 00:51:26;;;;;;;11.60;4.57;;;;;;;-6.12;65.76;100711.11;1781926;79;21388;-53
2020/12/09 00:53:54;;;;;;;14.23;4.50;;;;;;;-6.13;65.79;100711.56;1781799;79;21799;-52
2020/12/09 00:56:23;;;;;;;13.43;4.20;;;;;;;-6.11;65.68;100711.58;1778166;78;21178;-53
2020/12/09 00:58:51;;;;;;;11.67;4.53;;;;;;;-6.08;65.62;100706.45;1776913;79;21785;-53
2020/12/09 01:01:20;;;;;;;13.90;4.27;;;;;;;-6.04;65.54;100705.73;1779860;79;21512;-53
2020/12/09 01:03:49;;;;;;;11.33;4.03;;;;;;;-6.02;65.50;100703.13;1773852;79;21217;-52
2020/12/09 01:06:16;;;;;;;10.97;2.70;;;;;;;-5.99;65.43;100706.77;1778524;79;21282;-52
2020/12/09 01:08:43;;;;;;;9.83;3.53;;;;;;;-5.95;65.35;100703.80;1780143;79;21134;-52
2020/12/09 01:11:10;;;;;;;13.97;4.57;;;;;;;-5.94;65.31;100700.34;1777044;79;21115;-53
2020/12/09 01:13:43;;;;;;;14.43;4.20;;;;;;;-5.93;65.19;100699.50;1781445;79;21091;-53
2020/12/09 01:16:06;;;;;;;9.83;3.40;;;;;;;-5.94;65.18;100689.86;1775543;79;21218;-52
2020/12/09 01:18:34;;;;;;;8.93;2.90;;;;;;;-5.92;65.16;100687.77;1777911;79;21175;-53
2020/12/09 01:21:01;;;;;;;12.80;3.47;;;;;;;-5.91;65.09;100684.30;1768582;79;21140;-52
2020/12/09 01:23:28;;;;;;;13.00;4.33;;;;;;;-5.90;65.05;100687.82;1766975;79;21112;-53
2020/12/09 01:25:55;;;;;;;11.43;3.13;;;;;;;-5.90;64.87;100691.75;1766073;80;21505;-53
2020/12/09 01:28:22;;;;;;;12.70;2.97;;;;;;;-5.91;64.95;100691.28;1766804;79;22301;-53
2020/12/09 01:30:49;;;;;;;7.70;3.13;;;;;;;-5.87;64.89;100689.20;1762695;79;21167;-52
2020/12/09 01:33:17;;;;;;;7.90;2.63;;;;;;;-5.83;64.83;100687.14;1768493;80;21155;-52
2020/12/09 01:35:44;;;;;;;10.07;2.57;;;;;;;-5.78;64.76;100693.41;1763079;80;21146;-53
2020/12/09 01:38:11;;;;;;;7.27;2.20;;;;;;;-5.74;64.65;100689.63;1766101;80;20993;-53
2020/12/09 01:40:38;;;;;;;11.70;2.73;;;;;;;-5.70;64.56;100696.30;1763807;79;22276;-53
2020/12/09 01:43:05;;;;;;;7.60;2.30;;;;;;;-5.70;64.59;100690.63;1774361;79;21142;-53
2020/12/09 01:45:33;;;;;;;9.60;2.80;;;;;;;-5.69;64.48;100685.83;1776386;80;21118;-53
2020/12/09 01:48:01;;;;;;;10.73;2.83;;;;;;;-5.67;64.45;100688.09;1771760;80;21139;-53
2020/12/09 01:50:28;;;;;;;10.37;3.17;;;;;;;-5.64;64.46;100691.23;1771961;78;21407;-53
2020/12/09 01:52:55;;;;;;;6.33;2.43;;;;;;;-5.64;64.36;100686.89;1773476;78;21146;-53
2020/12/09 01:55:22;;;;;;;7.23;2.87;;;;;;;-5.64;64.31;100686.89;1771404;80;21609;-53
2020/12/09 01:57:49;;;;;;;6.40;1.73;;;;;;;-5.62;64.30;100683.89;1768085;80;20992;-53
2020/12/09 02:00:17;;;;;;;8.60;2.00;;;;;;;-5.59;64.19;100690.53;1768385;80;21290;-52
2020/12/09 02:02:44;;;;;;;9.77;2.67;;;;;;;-5.57;64.24;100697.14;1765445;79;20930;-52
2020/12/09 02:05:13;;;;;;;9.03;3.23;;;;;;;-5.55;64.11;100693.73;1772562;80;21392;-54
2020/12/09 02:07:40;;;;;;;11.57;3.07;;;;;;;-5.51;64.04;100696.90;1775907;80;21142;-53
2020/12/09 02:10:09;;;;;;;7.53;2.00;;;;;;;-5.47;64.09;100697.90;1771969;80;21446;-52
2020/12/09 02:12:39;;;;;;;11.57;2.53;;;;;;;-5.45;64.12;100690.97;1775318;78;21115;-53
2020/12/09 02:15:07;;;;;;;8.53;2.80;;;;;;;-5.43;64.03;100691.47;1770617;80;21498;-52
2020/12/09 02:17:35;;;;;;;7.70;1.50;;;;;;;-5.41;63.96;100695.03;1772666;80;21182;-52
2020/12/09 02:20:08;;;;;;;6.40;1.83;;;;;;;-5.39;63.93;100690.73;1776793;78;21660;-53
2020/12/09 02:22:35;;;;;;;6.70;1.87;;;;;;;-5.36;63.93;100690.80;1783169;79;21115;-53
2020/12/09 02:25:03;;;;;;;7.40;2.30;;;;;;;-5.31;63.87;100686.12;1782725;79;21153;-48
2020/12/09 02:27:30;;;;;;;6.63;1.90;;;;;;;-5.31;63.81;100683.50;1788110;79;21107;-52
2020/12/09 02:29:57;;;;;;;6.23;1.47;;;;;;;-5.31;63.86;100680.87;1787889;78;21382;-49
2020/12/09 02:32:25;;;;;;;7.77;2.03;;;;;;;-5.30;63.92;100677.41;1787271;79;21183;-53
2020/12/09 02:34:52;;;;;;;7.17;1.90;;;;;;;-5.28;63.90;100690.17;1786391;79;21118;-52
2020/12/09 02:37:19;;;;;;;7.43;1.57;;;;;;;-5.24;63.84;100688.09;1780996;79;21110;-49
2020/12/09 02:39:47;;;;;;;8.47;2.07;;;;;;;-5.22;63.80;100688.61;1777943;79;21106;-54
2020/12/09 02:42:15;;;;;;;8.03;2.17;;;;;;;-5.21;63.87;100690.81;1778298;79;21198;-49
2020/12/09 02:44:43;;;;;;;8.50;1.80;;;;;;;-5.20;63.92;100695.22;1778061;79;20966;-49
2020/12/09 02:47:11;;;;;;;6.17;2.27;;;;;;;-5.19;63.98;100691.34;1780131;79;21544;-50
2020/12/09 02:49:38;;;;;;;8.50;2.57;;;;;;;-5.15;63.94;100696.23;1776268;79;21155;-48
2020/12/09 02:52:05;;;;;;;8.33;2.63;;;;;;;-5.14;63.85;100697.59;1776489;79;21219;-49
2020/12/09 02:54:32;;;;;;;6.60;2.17;;;;;;;-5.11;63.89;100704.27;1776936;79;21640;-52
2020/12/09 02:56:59;;;;;;;3.90;1.30;;;;;;;-5.07;63.75;100704.80;1776129;79;21238;-54
2020/12/09 02:59:26;;;;;;;7.13;2.17;;;;;;;-5.05;63.80;100700.50;1775448;79;22455;-50
2020/12/09 03:01:54;;;;;;;6.07;1.77;;;;;;;-5.03;63.87;100702.75;1774302;79;21198;-51
2020/12/09 03:04:21;;;;;;;13.80;2.07;;;;;;;-4.98;63.83;100706.80;1776158;79;21656;-55
2020/12/09 03:06:49;;;;;;;7.03;2.27;;;;;;;-4.95;63.71;100705.59;1778460;79;21370;-48
2020/12/09 03:09:16;;;;;;;6.13;1.57;;;;;;;-4.96;63.72;100711.69;1776136;79;21242;-50
2020/12/09 03:11:43;;;;;;;4.17;1.50;;;;;;;-4.93;63.82;100710.90;1778424;79;21505;-50
2020/12/09 03:14:10;;;;;;;7.83;2.43;;;;;;;-4.89;63.78;100706.18;1772407;79;21245;-50
2020/12/09 03:16:37;;;;;;;7.13;1.67;;;;;;;-4.87;63.77;100709.33;1773024;79;21218;-52
2020/12/09 03:19:05;;;;;;;4.97;2.10;;;;;;;-4.83;63.72;100710.28;1774326;79;21374;-49
2020/12/09 03:21:32;;;;;;;8.03;2.27;;;;;;;-4.84;63.54;100708.08;1774934;79;21575;-50
2020/12/09 03:23:59;;;;;;;5.90;2.33;;;;;;;-4.84;63.61;100705.45;1776791;79;21222;-50
2020/12/09 03:26:26;;;;;;;7.47;1.93;;;;;;;-4.82;63.68;100706.40;1776068;79;21182;-50
2020/12/09 03:28:54;;;;;;;9.23;1.93;;;;;;;-4.80;63.58;100702.09;1775401;78;21190;-52
2020/12/09 03:31:21;;;;;;;6.43;1.60;;;;;;;-4.78;63.52;100699.51;1777486;79;21361;-50
2020/12/09 03:33:48;;;;;;;8.33;1.90;;;;;;;-4.80;63.58;100699.88;1765757;79;21234;-51
2020/12/09 03:36:17;;;;;;;5.87;1.40;;;;;;;-4.80;63.59;100701.19;1780338;78;21597;-48
2020/12/09 03:38:44;;;;;;;5.97;2.27;;;;;;;-4.81;63.73;100696.78;1776750;79;21820;-51
2020/12/09 03:41:11;;;;;;;9.13;1.80;;;;;;;-4.80;63.89;100700.77;1799718;78;21222;-50
2020/12/09 03:43:39;;;;;;;6.67;1.97;;;;;;;-4.77;63.93;100696.94;1775907;79;21423;-51
2020/12/09 03:46:06;;;;;;;4.67;1.57;;;;;;;-4.76;63.79;100699.99;1780776;78;21444;-49
2020/12/09 03:48:34;;;;;;;6.60;1.83;;;;;;;-4.75;63.95;100694.32;1805617;78;21106;-50
2020/12/09 03:51:01;;;;;;;5.47;2.20;;;;;;;-4.75;64.07;100692.58;1777257;79;21591;-51
2020/12/09 03:53:32;;;;;;;7.10;1.97;;;;;;;-4.73;64.16;100686.95;1802470;78;21102;-50
2020/12/09 03:55:57;;;;;;;7.20;2.10;;;;;;;-4.68;64.01;100685.79;1804415;78;21423;-48
2020/12/09 03:58:25;;;;;;;7.53;3.07;;;;;;;-4.67;63.95;100687.11;1783057;79;21550;-51
2020/12/09 04:00:52;;;;;;;8.60;1.70;;;;;;;-4.66;64.03;100684.95;1783725;79;21111;-50
2020/12/09 04:03:19;;;;;;;10.30;2.50;;;;;;;-4.65;64.08;100683.22;1788158;79;21139;-52
2020/12/09 04:05:49;;;;;;;5.23;1.90;;;;;;;-4.63;64.08;100674.97;1783876;79;21134;-51
2020/12/09 04:08:16;;;;;;;8.80;1.97;;;;;;;-4.62;64.12;100678.95;1786727;79;21380;-54
2020/12/09 04:10:43;;;;;;;8.63;2.43;;;;;;;-4.60;64.15;100673.75;1803891;78;21972;-52
2020/12/09 04:13:10;;;;;;;12.87;3.37;;;;;;;-4.58;64.25;100675.55;1778391;79;21127;-48
2020/12/09 04:15:37;;;;;;;7.33;2.00;;;;;;;-4.54;64.25;100670.39;1781385;79;21513;-53
2020/12/09 04:18:05;;;;;;;7.87;2.03;;;;;;;-4.52;64.24;100670.01;1778440;79;20985;-50
2020/12/09 04:20:33;;;;;;;5.80;2.00;;;;;;;-4.51;64.10;100673.11;1777592;79;21384;-54
2020/12/09 04:23:00;;;;;;;6.90;2.00;;;;;;;-4.50;64.24;100677.48;1776733;79;21816;-49
2020/12/09 04:25:27;;;;;;;8.60;2.47;;;;;;;-4.50;64.21;100681.42;1773415;79;21121;-50
2020/12/09 04:27:54;;;;;;;9.90;2.40;;;;;;;-4.50;64.19;100678.80;1774773;79;21103;-53
2020/12/09 04:30:22;;;;;;;9.87;1.73;;;;;;;-4.49;64.26;100689.36;1777458;79;21100;-49
2020/12/09 04:32:49;;;;;;;8.53;2.20;;;;;;;-4.48;64.35;100686.30;1777187;79;21268;-54
2020/12/09 04:35:17;;;;;;;6.73;2.00;;;;;;;-4.47;64.34;100674.95;1775591;79;21989;-51
2020/12/09 04:37:45;;;;;;;7.87;2.20;;;;;;;-4.45;64.33;100686.41;1778430;79;21095;-49
2020/12/09 04:40:13;;;;;;;11.00;1.80;;;;;;;-4.45;64.43;100682.03;1775543;79;21103;-52
2020/12/09 04:42:54;;;;;;;4.97;1.80;;;;;;;-4.43;64.44;100684.29;1776473;79;21107;-53
2020/12/09 04:45:31;;;;;;;6.27;1.77;;;;;;;-4.39;64.59;100676.93;1818050;75;25122;-50
2020/12/09 04:48:08;;;;;;;7.77;2.30;;;;;;;-4.39;64.61;100679.56;1787883;77;22235;-50
2020/12/09 04:51:30;;;;;;;8.17;1.40;;;;;;;-4.36;64.62;100678.77;1788492;77;21210;-52
2020/12/09 04:53:58;;;;;;;9.03;2.80;;;;;;;-4.34;64.60;100679.70;1792882;77;20973;-52
2020/12/09 04:56:39;;;;;;;9.77;2.90;;;;;;;-4.36;64.63;100680.08;1793403;77;20957;-49
2020/12/09 04:59:16;;;;;;;7.27;1.80;;;;;;;-4.34;64.76;100683.64;1791567;77;21542;-53
2020/12/09 05:02:03;;;;;;;6.17;2.13;;;;;;;-4.34;64.76;100691.53;1744970;77;21095;-50
2020/12/09 05:04:32;;;;;;;9.90;2.57;;;;;;;-4.33;64.82;100688.02;1792680;77;21534;-52
2020/12/09 05:07:10;;;;;;;9.20;2.23;;;;;;;-4.35;64.87;100688.43;1792881;77;21024;-49
2020/12/09 05:09:45;;;;;;;8.90;2.40;;;;;;;-4.38;64.93;100692.28;1794243;77;20965;-54
2020/12/09 05:12:17;;;;;;;7.85;2.30;;;;;;;-4.42;65.15;100689.98;1795824;77;22024;-53
2020/12/09 05:14:47;;;;;;;7.57;1.93;;;;;;;-4.42;65.31;100689.98;1797095;77;22016;-49
2020/12/09 05:17:18;;;;;;;6.93;3.37;;;;;;;-4.39;65.44;100687.86;1792224;77;22499;-50
2020/12/09 05:19:46;;;;;;;6.83;2.30;;;;;;;-4.37;65.43;100690.12;1792729;77;21445;-52
2020/12/09 05:22:16;;;;;;;6.33;1.93;;;;;;;-4.37;65.49;100687.48;1805068;77;21142;-54
2020/12/09 05:26:20;;;;;;;7.10;2.40;;;;;;;-4.31;65.54;100687.64;1794523;78;25432;-51
2020/12/09 05:29:10;;;;;;;7.27;2.70;;;;;;;-4.30;65.71;100696.00;1861515;74;25588;-46
2020/12/09 05:31:39;;;;;;;7.37;2.23;;;;;;;-4.30;65.77;100701.25;1839080;75;21551;-49
2020/12/09 05:34:26;;;;;;;9.50;3.80;;;;;;;-4.29;65.79;100703.03;1840058;75;21142;-49
2020/12/09 05:36:56;;;;;;;6.40;1.87;;;;;;;-4.28;65.79;100704.40;1839597;75;20961;-50
2020/12/09 05:39:24;;;;;;;11.63;2.83;;;;;;;-4.27;65.94;100703.98;1834090;75;21393;-54
2020/12/09 05:41:51;;;;;;;5.63;2.07;;;;;;;-4.27;65.92;100706.60;1839628;75;21078;-53
2020/12/09 05:44:19;;;;;;;8.93;2.33;;;;;;;-4.25;66.03;100707.51;1832422;75;21091;-47
2020/12/09 05:47:02;;;;;;;5.87;2.07;;;;;;;-4.23;66.06;100704.50;1840749;75;21369;-50
2020/12/09 05:49:37;;;;;;;8.80;3.03;;;;;;;-4.23;66.10;100696.61;1837647;75;20968;-48
2020/12/09 05:52:15;;;;;;;8.50;2.30;;;;;;;-4.21;66.20;100704.13;1834755;75;21508;-52
2020/12/09 05:54:46;;;;;;;6.23;2.00;;;;;;;-4.20;66.27;100697.59;1835032;75;21079;-50
2020/12/09 05:57:16;;;;;;;6.30;2.83;;;;;;;-4.19;66.29;100694.55;1833158;75;21389;-47
2020/12/09 05:59:47;;;;;;;9.00;2.73;;;;;;;-4.20;66.43;100694.08;1840041;75;20929;-48
2020/12/09 06:02:16;;;;;;;9.63;3.33;;;;;;;-4.22;66.49;100695.34;1839325;75;21134;-49
2020/12/09 06:04:58;;;;;;;10.60;3.20;;;;;;;-4.24;66.62;100693.52;1836860;75;20980;-53
2020/12/09 06:07:30;;;;;;;10.10;2.73;;;;;;;-4.25;66.82;100694.36;1828560;75;21761;-49
2020/12/09 06:10:16;;;;;;;9.50;2.50;;;;;;;-4.26;66.93;100695.24;1807175;77;21480;-48
2020/12/09 06:12:58;;;;;;;6.97;2.73;;;;;;;-4.26;67.01;100696.56;1816604;77;21196;-48
2020/12/09 06:15:28;;;;;;;12.07;4.07;;;;;;;-4.27;67.18;100700.92;1752031;80;21136;-49
2020/12/09 06:18:13;;;;;;;6.30;2.10;;;;;;;-4.27;67.35;100698.30;1772235;78;22084;-48
2020/12/09 06:20:42;;;;;;;12.73;3.90;;;;;;;-4.28;67.54;100699.56;1775834;79;21191;-49
2020/12/09 06:23:14;;;;;;;9.97;3.77;;;;;;;-4.27;67.68;100706.60;1775424;78;21109;-49
2020/12/09 06:25:46;;;;;;;9.03;3.23;;;;;;;-4.25;67.80;100708.82;1757286;79;21202;-49
2020/12/09 06:28:17;;;;;;;9.30;3.20;;;;;;;-4.24;67.96;100710.18;1745358;79;21125;-48
2020/12/09 06:30:44;;;;;;;12.80;4.13;;;;;;;-4.23;68.02;100705.81;1737052;81;21125;-53
2020/12/09 06:33:12;;;;;;;8.57;3.37;;;;;;;-4.22;68.24;100703.66;1737676;81;21094;-51
2020/12/09 06:35:39;;;;;;;10.40;3.43;;;;;;;-4.21;68.30;100701.07;1743260;81;21492;-48
2020/12/09 06:38:13;;;;;;;9.90;3.13;;;;;;;-4.18;68.42;100700.69;1735074;81;21197;-48
2020/12/09 06:40:56;;;;;;;14.47;4.23;;;;;;;-4.15;68.55;100702.06;1736705;81;21196;-54
2020/12/09 06:43:23;;;;;;;15.10;3.93;;;;;;;-4.17;68.64;100709.94;1735568;81;21612;-52
2020/12/09 06:45:51;;;;;;;11.30;2.83;;;;;;;-4.16;68.81;100705.13;1732516;81;21193;-49
2020/12/09 06:48:18;;;;;;;6.73;2.53;;;;;;;-4.16;68.90;100709.48;1740730;81;21186;-48
2020/12/09 06:50:46;;;;;;;11.73;3.17;;;;;;;-4.16;69.06;100705.13;1738927;81;21528;-54
2020/12/09 06:53:17;;;;;;;8.50;3.10;;;;;;;-4.13;69.20;100703.89;1740078;81;21079;-54
2020/12/09 06:55:45;;;;;;;12.07;3.57;;;;;;;-4.12;69.23;100697.79;1731325;81;21208;-54
2020/12/09 06:58:28;;;;;;;9.37;3.57;;;;;;;-4.11;69.45;100704.83;1742991;80;21653;-55
2020/12/09 07:01:05;;;;;;;8.57;3.07;;;;;;;-4.11;69.54;100703.94;1740861;80;21099;-51
2020/12/09 07:03:38;;;;;;;9.77;3.83;;;;;;;-4.10;69.71;100702.67;1735970;81;21447;-52
2020/12/09 07:06:22;;;;;;;12.80;3.70;;;;;;;-4.08;69.76;100706.20;1737890;81;21436;-50
2020/12/09 07:08:50;;;;;;;;;;;;;;;-4.06;69.88;100704.52;1740240;80;21200;-50
2020/12/09 07:11:17;;;;;;;12.93;4.03;;;;;;;-4.04;69.96;100717.28;1738950;81;20366;-51
2020/12/09 07:13:44;;;;;;;8.57;3.07;;;;;;;-4.04;70.09;100713.76;1736180;80;21183;-53
2020/12/09 07:16:12;;;;;;;9.90;3.80;;;;;;;-4.05;70.23;100716.81;1711627;81;21398;-50
2020/12/09 07:18:40;;;;;;;7.80;3.17;;;;;;;-4.04;70.28;100719.91;1738659;80;21190;-54
2020/12/09 07:21:08;;;;;;;13.27;4.67;;;;;;;-4.03;70.35;100719.06;1714099;81;21170;-52
2020/12/09 07:23:35;;;;;;;13.50;3.70;;;;;;;-3.99;70.43;100717.38;1738130;81;21440;-50
2020/12/09 07:26:03;;;;;;;14.07;4.50;;;;;;;-3.98;70.63;100716.53;1737695;81;21180;-49
2020/12/09 07:28:33;;;;;;;15.63;5.10;;;;;;;-3.96;70.70;100713.10;1752230;79;21923;-47
2020/12/09 07:31:08;;;;;;;12.20;3.60;;;;;;;-3.91;70.66;100714.52;1758013;79;21230;-49
2020/12/09 07:33:35;;;;;;;11.30;4.03;;;;;;;-3.90;70.72;100717.19;1749402;79;21166;-53
2020/12/09 07:36:06;;;;;;;14.17;6.07;;;;;;;-3.88;70.85;100719.44;1756403;79;21188;-50
2020/12/09 07:38:34;;;;;;;12.93;5.80;;;;;;;-3.84;70.96;100717.79;1751658;79;21174;-53
2020/12/09 07:41:01;;;;;;;12.50;3.87;;;;;;;-3.82;71.03;100722.22;1761315;79;22610;-49
2020/12/09 07:43:29;;;;;;;13.40;3.80;;;;;;;-3.81;71.03;100720.48;1781640;78;21017;-53
2020/12/09 07:46:03;;;;;;;10.67;3.80;;;;;;;-3.84;71.11;100712.53;1748525;79;22155;-49
2020/12/09 07:48:32;;;;;;;17.30;4.40;;;;;;;-3.83;71.26;100720.43;1747629;79;22793;-49
2020/12/09 07:50:59;;;;;;;7.60;2.77;;;;;;;-3.81;71.33;100723.11;1745037;80;21160;-48
2020/12/09 07:57:11;;;;;;;13.67;5.83;;;;;;;-3.72;71.59;100707.55;1748261;79;26979;-52
2020/12/09 08:02:24;;;;;;;11.33;4.83;;;;;;;-3.67;71.65;100707.67;1749693;79;25098;-49
2020/12/09 08:05:20;;;;;;;12.80;6.00;;;;;;;-3.70;71.68;100711.54;1731640;80;21116;-50
2020/12/09 08:07:52;;;;;;;13.33;3.80;;;;;;;-3.68;71.75;100712.47;1683982;82;21510;-52
2020/12/09 08:10:33;;;;;;;9.20;3.97;;;;;;;-3.64;71.86;100715.20;1664808;84;21207;-49
2020/12/09 08:13:14;;;;;;;11.03;4.90;;;;;;;-3.60;71.90;100713.55;1663479;84;21175;-48
2020/12/09 08:15:43;;;;;;;18.37;6.13;;;;;;;-3.57;72.01;100709.64;1664617;84;21140;-53
2020/12/09 08:18:21;;;;;;;13.50;4.33;;;;;;;-3.57;72.07;100719.75;1665062;84;21489;-50
2020/12/09 08:20:52;;;;;;;10.23;4.60;;;;;;;-3.52;72.08;100722.50;1658736;84;21233;-53
2020/12/09 08:23:20;;;;;;;18.57;6.23;;;;;;;-3.52;72.18;100717.24;1668090;84;21996;-50
2020/12/09 08:25:50;;;;;;;16.67;6.13;;;;;;;-3.50;72.24;100712.91;1667128;84;21004;-50
2020/12/09 08:28:22;;;;;;;13.43;6.03;;;;;;;-3.45;72.30;100717.41;1663773;84;21838;-52
2020/12/09 08:30:51;;;;;;;14.17;5.37;;;;;;;-3.42;72.34;100715.72;1665830;84;21462;-50
2020/12/09 08:33:27;;;;;;;11.03;4.77;;;;;;;-3.40;72.45;100712.24;1663902;84;22513;-52
2020/12/09 08:36:00;;;;;;;17.03;5.60;;;;;;;-3.34;72.44;100717.67;1667451;84;21140;-51
2020/12/09 08:38:37;;;;;;;11.50;5.50;;;;;;;-3.31;72.43;100709.82;1663174;84;21156;-50
2020/12/09 08:41:08;;;;;;;14.33;6.13;;;;;;;-3.28;72.43;100717.80;1664803;84;21168;-48
2020/12/09 08:43:36;;;;;;;14.73;4.97;;;;;;;-3.26;72.43;100714.78;1666217;84;21238;-53
2020/12/09 08:46:05;;;;;;;11.60;4.73;;;;;;;-3.21;72.49;100710.92;1663812;84;22760;-50
2020/12/09 08:48:34;;;;;;;15.03;5.77;;;;;;;-3.19;72.47;100713.17;1668053;84;21477;-48
2020/12/09 08:51:02;;;;;;;13.37;4.87;;;;;;;-3.20;72.47;100717.97;1665447;84;21139;-49
2020/12/09 08:53:29;;;;;;;12.17;3.67;;;;;;;-3.22;72.46;100717.93;1666286;84;21152;-49
2020/12/09 08:55:56;;;;;;;13.13;5.90;;;;;;;-3.24;72.58;100710.88;1666040;84;21178;-49
2020/12/09 08:58:23;;;;;;;14.07;5.90;;;;;;;-3.24;72.69;100705.18;1664059;84;21218;-53
2020/12/09 09:00:50;;;;;;;12.43;4.90;;;;;;;-3.24;72.74;100698.60;1661472;84;21192;-49
2020/12/09 09:03:20;;;;;;;15.70;5.67;;;;;;;-3.20;72.82;100699.11;1652719;85;21159;-49
2020/12/09 09:05:55;;;;;;;14.10;5.90;;;;;;;-3.19;72.87;100692.99;1653064;85;21148;-52
2020/12/09 09:08:23;;;;;;;9.88;5.05;;;;;;;-3.15;73.00;100696.59;1652055;85;21177;-49
2020/12/09 09:10:51;;;;;;;10.17;4.20;;;;;;;-3.14;72.99;100691.33;1690532;82;22346;-50
2020/12/09 09:13:18;;;;;;;14.10;5.50;;;;;;;-3.11;73.14;100687.46;1690312;82;21651;-52
2020/12/09 09:15:46;;;;;;;11.90;5.47;;;;;;;-3.08;73.16;100688.86;1696975;82;21690;-54
2020/12/09 09:18:13;;;;;;;13.03;5.17;;;;;;;-3.05;73.14;100686.69;1691562;82;21231;-52
2020/12/09 09:23:02;;;;;;;13.67;5.20;;;;;;;-2.97;73.18;100688.16;1863989;74;25831;-53
2020/12/09 09:25:29;;;;;;;12.30;5.73;;;;;;;-2.98;73.13;100693.89;1822027;76;21206;-51
2020/12/09 09:27:56;;;;;;;16.33;5.50;;;;;;;-2.92;73.16;100688.74;1823926;76;21829;-52
2020/12/09 09:30:24;;;;;;;12.50;6.10;;;;;;;-2.86;72.97;100694.13;1822490;76;21179;-54
2020/12/09 09:32:51;;;;;;;10.77;5.43;;;;;;;-2.83;72.92;100690.68;1824718;76;21164;-50
2020/12/09 09:35:19;;;;;;;14.60;4.60;;;;;;;-2.82;72.99;100687.19;1823511;76;21040;-50
2020/12/09 09:37:47;;;;;;;14.77;5.83;;;;;;;-2.78;72.93;100692.53;1822706;76;21430;-53
2020/12/09 09:40:14;;;;;;;15.13;4.50;;;;;;;-2.73;72.73;100690.91;1820230;76;21528;-55
2020/12/09 09:42:41;;;;;;;15.83;6.13;;;;;;;-2.72;72.55;100698.34;1766892;79;21173;-55
2020/12/09 09:45:11;;;;;;;13.17;4.60;;;;;;;-2.71;72.62;100694.86;1823704;76;21009;-52
2020/12/09 09:47:38;;;;;;;13.37;5.30;;;;;;;-2.69;72.64;100699.73;1758545;79;21225;-55
2020/12/09 09:50:07;;;;;;;16.57;5.87;;;;;;;-2.68;72.64;100698.88;1783537;78;21210;-55
2020/12/09 09:52:35;;;;;;;11.97;5.13;;;;;;;-2.66;72.59;100695.86;1826778;76;21128;-52
2020/12/09 09:55:03;;;;;;;12.87;5.30;;;;;;;-2.68;72.43;100694.50;1825015;76;21111;-51
2020/12/09 09:57:30;;;;;;;18.70;5.40;;;;;;;-2.69;72.50;100695.78;1822143;76;21156;-51
2020/12/09 09:59:58;;;;;;;14.87;5.43;;;;;;;-2.70;72.35;100693.58;1827088;76;21182;-55
2020/12/09 10:02:26;;;;;;;12.37;4.67;;;;;;;-2.71;72.32;100697.49;1819920;76;22296;-52
2020/12/09 10:04:53;;;;;;;9.67;4.33;;;;;;;-2.74;72.30;100689.12;1817720;76;22625;-49
2020/12/09 10:07:20;;;;;;;18.03;6.43;;;;;;;-2.75;72.33;100691.72;1816615;76;21093;-55
2020/12/09 10:09:48;;;;;;;11.37;4.00;;;;;;;-2.77;72.31;100686.41;1801759;77;21167;-51
2020/12/09 10:12:16;;;;;;;9.83;3.47;;;;;;;-2.77;72.22;100684.20;1803437;77;21171;-49
2020/12/09 10:14:44;;;;;;;9.03;3.70;;;;;;;-2.79;72.00;100683.28;1802833;77;21622;-50
2020/12/09 10:17:11;;;;;;;8.80;2.57;;;;;;;-2.82;71.99;100682.81;1800439;77;21637;-52
2020/12/09 10:19:38;;;;;;;9.73;3.70;;;;;;;-2.83;71.83;100675.76;1803756;77;21202;-50
2020/12/09 10:22:05;;;;;;;9.30;3.63;;;;;;;-2.81;71.77;100683.70;1804107;77;21144;-51
2020/12/09 10:24:33;;;;;;;10.13;3.23;;;;;;;-2.83;71.64;100678.82;1800778;77;21183;-51
2020/12/09 10:27:00;;;;;;;9.93;3.07;;;;;;;-2.86;71.56;100674.37;1798285;77;21558;-52
2020/12/09 10:29:27;;;;;;;11.53;3.53;;;;;;;-2.86;71.53;100671.73;1707787;81;21557;-51
2020/12/09 10:31:54;;;;;;;10.67;4.27;;;;;;;-2.83;71.58;100679.71;1742511;80;21212;-53
2020/12/09 10:34:22;;;;;;;12.57;4.37;;;;;;;-2.80;71.60;100667.00;1768225;77;21218;-51
2020/12/09 10:36:51;;;;;;;8.70;3.47;;;;;;;-2.77;71.47;100664.44;1799012;78;21152;-50
2020/12/09 10:39:20;;;;;;;10.37;3.73;;;;;;;-2.75;71.51;100669.32;1797374;77;21425;-54
2020/12/09 10:41:47;;;;;;;11.63;4.17;;;;;;;-2.72;71.43;100662.77;1801993;77;22239;-49
2020/12/09 10:44:17;;;;;;;6.93;2.53;;;;;;;-2.71;71.43;100666.76;1808079;77;21014;-53
2020/12/09 10:46:45;;;;;;;10.37;3.53;;;;;;;-2.68;71.47;100673.84;1799905;77;21096;-49
2020/12/09 10:49:15;;;;;;;12.90;4.00;;;;;;;-2.64;71.44;100666.47;1796524;78;21236;-51
2020/12/09 10:51:45;;;;;;;7.73;2.83;;;;;;;-2.61;71.33;100671.78;1738677;80;21213;-50
2020/12/09 10:54:13;;;;;;;15.80;4.03;;;;;;;-2.60;71.32;100665.66;1799605;77;22159;-50
2020/12/09 10:56:41;;;;;;;10.23;3.07;;;;;;;-2.57;71.31;100673.63;1799990;77;21632;-48
2020/12/09 10:59:10;;;;;;;8.63;3.23;;;;;;;-2.55;71.31;100669.72;1799945;77;21683;-50
2020/12/09 11:01:37;;;;;;;11.27;4.50;;;;;;;-2.54;71.35;100661.81;1799410;77;21206;-48
2020/12/09 11:04:04;;;;;;;10.43;3.70;;;;;;;-2.52;71.40;100673.70;1799069;77;21215;-48
2020/12/09 11:06:34;;;;;;;8.23;3.33;;;;;;;-2.51;71.17;100666.27;1799355;78;21384;-53
2020/12/09 11:09:04;;;;;;;7.07;2.67;;;;;;;-2.52;71.06;100673.28;1795482;78;21215;-49
2020/12/09 11:11:32;;;;;;;9.73;2.40;;;;;;;-2.54;70.98;100663.55;1802131;77;21184;-52
2020/12/09 11:13:59;;;;;;;6.87;2.80;;;;;;;-2.56;71.03;100662.66;1743656;80;21626;-49
2020/12/09 11:16:27;;;;;;;10.57;3.47;;;;;;;-2.57;71.15;100664.41;1744217;80;21577;-53
2020/12/09 11:18:54;;;;;;;10.77;4.07;;;;;;;-2.58;71.19;100666.58;1747564;80;21250;-53
2020/12/09 11:21:22;;;;;;;9.50;3.80;;;;;;;-2.55;71.31;100656.53;1733904;81;21192;-53
2020/12/09 11:23:50;;;;;;;12.83;4.00;;;;;;;-2.52;71.27;100656.14;1780451;78;21163;-50
2020/12/09 11:26:19;;;;;;;10.47;3.83;;;;;;;-2.49;71.33;100653.58;1740583;80;21200;-50
2020/12/09 11:28:46;;;;;;;10.60;3.50;;;;;;;-2.46;71.35;100652.72;1735773;81;21176;-48
2020/12/09 11:31:14;;;;;;;11.57;4.73;;;;;;;-2.45;71.37;100652.75;1732055;80;21208;-48
2020/12/09 11:33:41;;;;;;;13.33;3.70;;;;;;;-2.42;71.44;100654.57;1734801;80;21221;-52
2020/12/09 11:36:08;;;;;;;14.30;4.23;;;;;;;-2.39;71.32;100654.64;1735009;81;21520;-54
2020/12/09 11:38:35;;;;;;;11.87;4.73;;;;;;;-2.39;71.37;100650.68;1724527;80;21242;-50
2020/12/09 11:41:02;;;;;;;15.83;4.67;;;;;;;-2.38;71.21;100653.31;1733891;81;21512;-52
2020/12/09 11:43:30;;;;;;;9.67;4.10;;;;;;;-2.40;71.29;100652.86;1799995;77;21186;-52
2020/12/09 11:45:57;;;;;;;13.97;4.13;;;;;;;-2.41;71.30;100646.69;1798152;77;21208;-50